sensor_id;sensor_type;location;lat;lon;timestamp;P1;durP1;ratioP1;P2;durP2;ratioP2
34697;SDS011;61391;50.922;6.928;2023-05-07T00:00:49;0.28;;;0.28;;
34697;SDS011;61391;50.922;6.928;2023-05-07T00:03:16;0.25;;;0.10;;
34697;SDS011;61391;50.922;6.928;2023-05-07T00:05:41;0.70;;;0.65;;
34697;SDS011;61391;50.922;6.928;2023-05-07T00:08:08;0.20;;;0.20;;
34697;SDS011;61391;50.922;6.928;2023-05-07T00:10:34;0.75;;;0.75;;
34697;SDS011;61391;50.922;6.928;2023-05-07T00:16:21;1.20;;;0.95;;
34697;SDS011;61391;50.922;6.928;2023-05-07T00:18:47;0.35;;;0.35;;
34697;SDS011;61391;50.922;6.928;2023-05-07T00:21:13;2.92;;;0.43;;
34697;SDS011;61391;50.922;6.928;2023-05-07T00:23:39;0.05;;;0.05;;
34697;SDS011;61391;50.922;6.928;2023-05-07T00:26:05;0.43;;;0.43;;
34697;SDS011;61391;50.922;6.928;2023-05-07T00:28:30;0.28;;;0.28;;
34697;SDS011;61391;50.922;6.928;2023-05-07T00:30:56;0.43;;;0.43;;
34697;SDS011;61391;50.922;6.928;2023-05-07T00:33:22;0.30;;;0.30;;
34697;SDS011;61391;50.922;6.928;2023-05-07T00:35:47;6.03;;;0.52;;
34697;SDS011;61391;50.922;6.928;2023-05-07T00:38:13;0.30;;;0.30;;
34697;SDS011;61391;50.922;6.928;2023-05-07T00:40:39;0.47;;;0.40;;
34697;SDS011;61391;50.922;6.928;2023-05-07T00:43:05;0.20;;;0.20;;
34697;SDS011;61391;50.922;6.928;2023-05-07T00:45:31;0.60;;;0.52;;
34697;SDS011;61391;50.922;6.928;2023-05-07T00:48:01;0.32;;;0.32;;
34697;SDS011;61391;50.922;6.928;2023-05-07T00:50:28;0.25;;;0.25;;
34697;SDS011;61391;50.922;6.928;2023-05-07T00:52:54;0.65;;;0.32;;
34697;SDS011;61391;50.922;6.928;2023-05-07T00:55:21;0.40;;;0.40;;
34697;SDS011;61391;50.922;6.928;2023-05-07T00:57:47;0.20;;;0.20;;
34697;SDS011;61391;50.922;6.928;2023-05-07T01:00:15;0.68;;;0.63;;
34697;SDS011;61391;50.922;6.928;2023-05-07T01:02:41;0.40;;;0.40;;
34697;SDS011;61391;50.922;6.928;2023-05-07T01:05:16;0.50;;;0.50;;
34697;SDS011;61391;50.922;6.928;2023-05-07T01:07:44;0.35;;;0.35;;
34697;SDS011;61391;50.922;6.928;2023-05-07T01:10:10;0.20;;;0.20;;
34697;SDS011;61391;50.922;6.928;2023-05-07T01:12:37;0.35;;;0.35;;
34697;SDS011;61391;50.922;6.928;2023-05-07T01:15:05;0.60;;;0.60;;
34697;SDS011;61391;50.922;6.928;2023-05-07T01:17:33;0.10;;;0.10;;
34697;SDS011;61391;50.922;6.928;2023-05-07T01:20:00;0.10;;;0.10;;
34697;SDS011;61391;50.922;6.928;2023-05-07T01:22:36;0.30;;;0.30;;
34697;SDS011;61391;50.922;6.928;2023-05-07T01:25:03;0.68;;;0.40;;
34697;SDS011;61391;50.922;6.928;2023-05-07T01:27:30;0.15;;;0.15;;
34697;SDS011;61391;50.922;6.928;2023-05-07T01:29:58;0.20;;;0.20;;
34697;SDS011;61391;50.922;6.928;2023-05-07T01:32:43;0.30;;;0.30;;
34697;SDS011;61391;50.922;6.928;2023-05-07T01:35:22;0.28;;;0.28;;
34697;SDS011;61391;50.922;6.928;2023-05-07T01:37:51;0.20;;;0.20;;
34697;SDS011;61391;50.922;6.928;2023-05-07T01:40:18;0.20;;;0.20;;
34697;SDS011;61391;50.922;6.928;2023-05-07T01:42:44;0.45;;;0.45;;
34697;SDS011;61391;50.922;6.928;2023-05-07T01:45:11;0.10;;;0.10;;
34697;SDS011;61391;50.922;6.928;2023-05-07T01:47:37;3.08;;;0.22;;
34697;SDS011;61391;50.922;6.928;2023-05-07T01:50:05;0.60;;;0.60;;
34697;SDS011;61391;50.922;6.928;2023-05-07T01:52:32;0.43;;;0.43;;
34697;SDS011;61391;50.922;6.928;2023-05-07T01:54:59;0.17;;;0.17;;
34697;SDS011;61391;50.922;6.928;2023-05-07T01:57:24;1.23;;;0.30;;
34697;SDS011;61391;50.922;6.928;2023-05-07T01:59:50;0.57;;;0.43;;
34697;SDS011;61391;50.922;6.928;2023-05-07T02:02:16;0.28;;;0.28;;
34697;SDS011;61391;50.922;6.928;2023-05-07T02:04:41;0.15;;;0.15;;
34697;SDS011;61391;50.922;6.928;2023-05-07T02:07:07;0.93;;;0.60;;
34697;SDS011;61391;50.922;6.928;2023-05-07T02:09:33;0.15;;;0.15;;
34697;SDS011;61391;50.922;6.928;2023-05-07T02:11:58;0.52;;;0.52;;
34697;SDS011;61391;50.922;6.928;2023-05-07T02:14:24;0.90;;;0.40;;
34697;SDS011;61391;50.922;6.928;2023-05-07T02:16:51;0.10;;;0.10;;
34697;SDS011;61391;50.922;6.928;2023-05-07T02:19:16;1.13;;;0.40;;
34697;SDS011;61391;50.922;6.928;2023-05-07T02:21:43;1.80;;;0.40;;
34697;SDS011;61391;50.922;6.928;2023-05-07T02:24:08;0.38;;;0.38;;
34697;SDS011;61391;50.922;6.928;2023-05-07T02:26:34;0.20;;;0.20;;
34697;SDS011;61391;50.922;6.928;2023-05-07T02:29:00;0.32;;;0.25;;
34697;SDS011;61391;50.922;6.928;2023-05-07T02:31:25;1.95;;;0.55;;
34697;SDS011;61391;50.922;6.928;2023-05-07T02:33:51;0.40;;;0.40;;
34697;SDS011;61391;50.922;6.928;2023-05-07T02:36:18;0.30;;;0.30;;
34697;SDS011;61391;50.922;6.928;2023-05-07T02:38:43;0.30;;;0.30;;
34697;SDS011;61391;50.922;6.928;2023-05-07T02:41:09;0.10;;;0.10;;
34697;SDS011;61391;50.922;6.928;2023-05-07T02:43:35;0.20;;;0.20;;
34697;SDS011;61391;50.922;6.928;2023-05-07T02:46:06;0.28;;;0.28;;
34697;SDS011;61391;50.922;6.928;2023-05-07T02:48:33;0.40;;;0.40;;
34697;SDS011;61391;50.922;6.928;2023-05-07T02:50:59;0.30;;;0.30;;
34697;SDS011;61391;50.922;6.928;2023-05-07T02:53:25;0.47;;;0.40;;
34697;SDS011;61391;50.922;6.928;2023-05-07T02:55:58;0.80;;;0.80;;
34697;SDS011;61391;50.922;6.928;2023-05-07T02:58:25;0.40;;;0.40;;
34697;SDS011;61391;50.922;6.928;2023-05-07T03:00:50;5.50;;;0.85;;
34697;SDS011;61391;50.922;6.928;2023-05-07T03:03:17;0.30;;;0.20;;
34697;SDS011;61391;50.922;6.928;2023-05-07T03:05:42;0.80;;;0.30;;
34697;SDS011;61391;50.922;6.928;2023-05-07T03:08:08;0.28;;;0.28;;
34697;SDS011;61391;50.922;6.928;2023-05-07T03:10:35;0.05;;;0.05;;
34697;SDS011;61391;50.922;6.928;2023-05-07T03:13:01;0.30;;;0.30;;
34697;SDS011;61391;50.922;6.928;2023-05-07T03:15:28;0.43;;;0.43;;
34697;SDS011;61391;50.922;6.928;2023-05-07T03:17:54;0.40;;;0.40;;
34697;SDS011;61391;50.922;6.928;2023-05-07T03:20:20;0.30;;;0.30;;
34697;SDS011;61391;50.922;6.928;2023-05-07T03:22:46;0.20;;;0.20;;
34697;SDS011;61391;50.922;6.928;2023-05-07T03:25:11;0.38;;;0.38;;
34697;SDS011;61391;50.922;6.928;2023-05-07T03:27:37;0.22;;;0.22;;
34697;SDS011;61391;50.922;6.928;2023-05-07T03:30:05;0.30;;;0.30;;
34697;SDS011;61391;50.922;6.928;2023-05-07T03:36:00;0.10;;;0.10;;
34697;SDS011;61391;50.922;6.928;2023-05-07T03:38:26;0.17;;;0.17;;
34697;SDS011;61391;50.922;6.928;2023-05-07T03:40:51;3.83;;;0.43;;
34697;SDS011;61391;50.922;6.928;2023-05-07T03:43:18;0.20;;;0.20;;
34697;SDS011;61391;50.922;6.928;2023-05-07T03:45:44;0.47;;;0.40;;
34697;SDS011;61391;50.922;6.928;2023-05-07T03:48:11;0.80;;;0.40;;
34697;SDS011;61391;50.922;6.928;2023-05-07T03:50:37;0.10;;;0.10;;
34697;SDS011;61391;50.922;6.928;2023-05-07T03:53:03;0.75;;;0.57;;
34697;SDS011;61391;50.922;6.928;2023-05-07T03:55:28;0.25;;;0.25;;
34697;SDS011;61391;50.922;6.928;2023-05-07T03:57:54;0.73;;;0.68;;
34697;SDS011;61391;50.922;6.928;2023-05-07T04:00:21;0.28;;;0.28;;
34697;SDS011;61391;50.922;6.928;2023-05-07T04:02:47;0.75;;;0.75;;
34697;SDS011;61391;50.922;6.928;2023-05-07T04:05:12;0.28;;;0.28;;
34697;SDS011;61391;50.922;6.928;2023-05-07T04:07:40;0.10;;;0.10;;
34697;SDS011;61391;50.922;6.928;2023-05-07T04:10:06;0.63;;;0.63;;
34697;SDS011;61391;50.922;6.928;2023-05-07T04:12:31;0.63;;;0.30;;
34697;SDS011;61391;50.922;6.928;2023-05-07T04:15:33;0.20;;;0.20;;
34697;SDS011;61391;50.922;6.928;2023-05-07T04:17:58;0.63;;;0.30;;
34697;SDS011;61391;50.922;6.928;2023-05-07T04:20:24;0.50;;;0.50;;
34697;SDS011;61391;50.922;6.928;2023-05-07T04:22:50;0.20;;;0.20;;
34697;SDS011;61391;50.922;6.928;2023-05-07T04:25:17;0.65;;;0.57;;
34697;SDS011;61391;50.922;6.928;2023-05-07T04:27:43;0.10;;;0.10;;
34697;SDS011;61391;50.922;6.928;2023-05-07T04:30:09;0.50;;;0.50;;
34697;SDS011;61391;50.922;6.928;2023-05-07T04:32:35;0.68;;;0.40;;
34697;SDS011;61391;50.922;6.928;2023-05-07T04:35:02;3.28;;;0.35;;
34697;SDS011;61391;50.922;6.928;2023-05-07T04:37:28;0.60;;;0.20;;
34697;SDS011;61391;50.922;6.928;2023-05-07T04:39:53;0.28;;;0.28;;
34697;SDS011;61391;50.922;6.928;2023-05-07T04:42:19;0.10;;;0.10;;
34697;SDS011;61391;50.922;6.928;2023-05-07T04:44:45;0.20;;;0.20;;
34697;SDS011;61391;50.922;6.928;2023-05-07T04:47:11;0.65;;;0.30;;
34697;SDS011;61391;50.922;6.928;2023-05-07T04:49:37;0.22;;;0.22;;
34697;SDS011;61391;50.922;6.928;2023-05-07T04:52:03;0.43;;;0.43;;
34697;SDS011;61391;50.922;6.928;2023-05-07T04:54:29;0.57;;;0.57;;
34697;SDS011;61391;50.922;6.928;2023-05-07T04:56:54;4.38;;;0.47;;
34697;SDS011;61391;50.922;6.928;2023-05-07T04:59:21;0.75;;;0.20;;
34697;SDS011;61391;50.922;6.928;2023-05-07T05:01:46;0.35;;;0.32;;
34697;SDS011;61391;50.922;6.928;2023-05-07T05:04:12;0.20;;;0.20;;
34697;SDS011;61391;50.922;6.928;2023-05-07T05:06:38;0.25;;;0.25;;
34697;SDS011;61391;50.922;6.928;2023-05-07T05:09:04;0.13;;;0.13;;
34697;SDS011;61391;50.922;6.928;2023-05-07T05:11:30;0.45;;;0.38;;
34697;SDS011;61391;50.922;6.928;2023-05-07T05:13:55;0.20;;;0.20;;
34697;SDS011;61391;50.922;6.928;2023-05-07T05:16:24;0.10;;;0.08;;
34697;SDS011;61391;50.922;6.928;2023-05-07T05:18:49;0.38;;;0.22;;
34697;SDS011;61391;50.922;6.928;2023-05-07T05:21:17;0.10;;;0.10;;
34697;SDS011;61391;50.922;6.928;2023-05-07T05:23:44;0.28;;;0.22;;
34697;SDS011;61391;50.922;6.928;2023-05-07T05:26:09;0.47;;;0.40;;
34697;SDS011;61391;50.922;6.928;2023-05-07T05:28:35;0.10;;;0.10;;
34697;SDS011;61391;50.922;6.928;2023-05-07T05:31:01;0.20;;;0.20;;
34697;SDS011;61391;50.922;6.928;2023-05-07T05:33:26;0.55;;;0.55;;
34697;SDS011;61391;50.922;6.928;2023-05-07T05:38:40;0.20;;;0.20;;
34697;SDS011;61391;50.922;6.928;2023-05-07T05:41:05;0.43;;;0.35;;
34697;SDS011;61391;50.922;6.928;2023-05-07T05:43:31;1.05;;;0.70;;
34697;SDS011;61391;50.922;6.928;2023-05-07T05:45:56;0.55;;;0.35;;
34697;SDS011;61391;50.922;6.928;2023-05-07T05:48:23;0.57;;;0.30;;
34697;SDS011;61391;50.922;6.928;2023-05-07T05:50:48;1.08;;;0.52;;
34697;SDS011;61391;50.922;6.928;2023-05-07T05:53:14;0.98;;;0.25;;
34697;SDS011;61391;50.922;6.928;2023-05-07T05:55:40;0.10;;;0.08;;
34697;SDS011;61391;50.922;6.928;2023-05-07T05:58:06;8.57;;;0.35;;
34697;SDS011;61391;50.922;6.928;2023-05-07T06:00:32;0.38;;;0.38;;
34697;SDS011;61391;50.922;6.928;2023-05-07T06:02:59;0.28;;;0.28;;
34697;SDS011;61391;50.922;6.928;2023-05-07T06:05:25;0.50;;;0.20;;
34697;SDS011;61391;50.922;6.928;2023-05-07T06:07:50;0.28;;;0.28;;
34697;SDS011;61391;50.922;6.928;2023-05-07T06:10:17;0.00;;;0.00;;
34697;SDS011;61391;50.922;6.928;2023-05-07T06:12:43;0.40;;;0.40;;
34697;SDS011;61391;50.922;6.928;2023-05-07T06:15:09;0.17;;;0.17;;
34697;SDS011;61391;50.922;6.928;2023-05-07T06:17:35;0.10;;;0.10;;
34697;SDS011;61391;50.922;6.928;2023-05-07T06:20:00;0.17;;;0.17;;
34697;SDS011;61391;50.922;6.928;2023-05-07T06:22:26;0.08;;;0.08;;
34697;SDS011;61391;50.922;6.928;2023-05-07T06:24:52;0.32;;;0.10;;
34697;SDS011;61391;50.922;6.928;2023-05-07T06:27:18;0.30;;;0.30;;
34697;SDS011;61391;50.922;6.928;2023-05-07T06:29:43;0.20;;;0.15;;
34697;SDS011;61391;50.922;6.928;2023-05-07T06:32:09;0.00;;;0.00;;
34697;SDS011;61391;50.922;6.928;2023-05-07T06:34:36;0.10;;;0.10;;
34697;SDS011;61391;50.922;6.928;2023-05-07T06:37:02;0.17;;;0.17;;
34697;SDS011;61391;50.922;6.928;2023-05-07T06:39:28;0.10;;;0.10;;
34697;SDS011;61391;50.922;6.928;2023-05-07T06:41:54;0.10;;;0.10;;
34697;SDS011;61391;50.922;6.928;2023-05-07T06:44:21;0.40;;;0.40;;
34697;SDS011;61391;50.922;6.928;2023-05-07T06:46:47;0.10;;;0.10;;
34697;SDS011;61391;50.922;6.928;2023-05-07T06:49:13;0.30;;;0.30;;
34697;SDS011;61391;50.922;6.928;2023-05-07T06:51:39;0.20;;;0.20;;
34697;SDS011;61391;50.922;6.928;2023-05-07T06:54:04;0.00;;;0.00;;
34697;SDS011;61391;50.922;6.928;2023-05-07T06:56:31;0.05;;;0.05;;
34697;SDS011;61391;50.922;6.928;2023-05-07T06:58:57;0.10;;;0.10;;
34697;SDS011;61391;50.922;6.928;2023-05-07T07:01:24;0.13;;;0.13;;
34697;SDS011;61391;50.922;6.928;2023-05-07T07:03:49;0.10;;;0.10;;
34697;SDS011;61391;50.922;6.928;2023-05-07T07:06:16;0.20;;;0.20;;
34697;SDS011;61391;50.922;6.928;2023-05-07T07:08:41;0.03;;;0.03;;
34697;SDS011;61391;50.922;6.928;2023-05-07T07:11:07;0.20;;;0.20;;
34697;SDS011;61391;50.922;6.928;2023-05-07T07:13:35;0.20;;;0.20;;
34697;SDS011;61391;50.922;6.928;2023-05-07T07:16:00;0.17;;;0.17;;
34697;SDS011;61391;50.922;6.928;2023-05-07T07:18:26;0.00;;;0.00;;
34697;SDS011;61391;50.922;6.928;2023-05-07T07:24:14;0.28;;;0.25;;
34697;SDS011;61391;50.922;6.928;2023-05-07T07:26:44;0.00;;;0.00;;
34697;SDS011;61391;50.922;6.928;2023-05-07T07:29:09;0.08;;;0.08;;
34697;SDS011;61391;50.922;6.928;2023-05-07T07:31:35;0.30;;;0.20;;
34697;SDS011;61391;50.922;6.928;2023-05-07T07:34:01;0.00;;;0.00;;
34697;SDS011;61391;50.922;6.928;2023-05-07T07:36:26;0.10;;;0.10;;
34697;SDS011;61391;50.922;6.928;2023-05-07T07:38:53;0.20;;;0.20;;
34697;SDS011;61391;50.922;6.928;2023-05-07T07:41:19;0.43;;;0.43;;
34697;SDS011;61391;50.922;6.928;2023-05-07T07:43:44;0.10;;;0.10;;
34697;SDS011;61391;50.922;6.928;2023-05-07T07:46:11;0.20;;;0.20;;
34697;SDS011;61391;50.922;6.928;2023-05-07T07:48:39;2.65;;;0.57;;
34697;SDS011;61391;50.922;6.928;2023-05-07T07:51:04;0.20;;;0.20;;
34697;SDS011;61391;50.922;6.928;2023-05-07T07:56:52;0.10;;;0.10;;
34697;SDS011;61391;50.922;6.928;2023-05-07T07:59:18;0.43;;;0.43;;
34697;SDS011;61391;50.922;6.928;2023-05-07T08:01:44;0.17;;;0.17;;
34697;SDS011;61391;50.922;6.928;2023-05-07T08:04:10;0.20;;;0.20;;
34697;SDS011;61391;50.922;6.928;2023-05-07T08:06:36;0.00;;;0.00;;
34697;SDS011;61391;50.922;6.928;2023-05-07T08:09:01;0.10;;;0.10;;
34697;SDS011;61391;50.922;6.928;2023-05-07T08:14:49;0.00;;;0.00;;
34697;SDS011;61391;50.922;6.928;2023-05-07T08:17:14;3.40;;;0.30;;
34697;SDS011;61391;50.922;6.928;2023-05-07T08:19:41;0.20;;;0.20;;
34697;SDS011;61391;50.922;6.928;2023-05-07T08:22:08;0.25;;;0.20;;
34697;SDS011;61391;50.922;6.928;2023-05-07T08:24:34;0.00;;;0.00;;
34697;SDS011;61391;50.922;6.928;2023-05-07T08:27:00;0.65;;;0.28;;
34697;SDS011;61391;50.922;6.928;2023-05-07T08:29:26;0.10;;;0.05;;
34697;SDS011;61391;50.922;6.928;2023-05-07T08:31:52;0.10;;;0.10;;
34697;SDS011;61391;50.922;6.928;2023-05-07T08:34:17;0.10;;;0.10;;
34697;SDS011;61391;50.922;6.928;2023-05-07T08:36:43;0.10;;;0.10;;
34697;SDS011;61391;50.922;6.928;2023-05-07T08:39:11;0.20;;;0.20;;
34697;SDS011;61391;50.922;6.928;2023-05-07T08:41:38;0.63;;;0.40;;
34697;SDS011;61391;50.922;6.928;2023-05-07T08:44:04;0.32;;;0.32;;
34697;SDS011;61391;50.922;6.928;2023-05-07T08:46:36;0.10;;;0.10;;
34697;SDS011;61391;50.922;6.928;2023-05-07T08:49:02;0.10;;;0.10;;
34697;SDS011;61391;50.922;6.928;2023-05-07T08:51:29;0.03;;;0.03;;
34697;SDS011;61391;50.922;6.928;2023-05-07T08:53:56;0.20;;;0.20;;
34697;SDS011;61391;50.922;6.928;2023-05-07T08:56:22;0.63;;;0.10;;
34697;SDS011;61391;50.922;6.928;2023-05-07T08:58:50;0.20;;;0.20;;
34697;SDS011;61391;50.922;6.928;2023-05-07T09:01:16;0.20;;;0.13;;
34697;SDS011;61391;50.922;6.928;2023-05-07T09:03:46;0.08;;;0.08;;
34697;SDS011;61391;50.922;6.928;2023-05-07T09:06:12;0.00;;;0.00;;
34697;SDS011;61391;50.922;6.928;2023-05-07T09:08:37;0.40;;;0.40;;
34697;SDS011;61391;50.922;6.928;2023-05-07T09:11:03;0.32;;;0.32;;
34697;SDS011;61391;50.922;6.928;2023-05-07T09:13:28;0.28;;;0.10;;
34697;SDS011;61391;50.922;6.928;2023-05-07T09:15:55;0.00;;;0.00;;
34697;SDS011;61391;50.922;6.928;2023-05-07T09:18:23;0.10;;;0.10;;
34697;SDS011;61391;50.922;6.928;2023-05-07T09:20:49;0.08;;;0.08;;
34697;SDS011;61391;50.922;6.928;2023-05-07T09:23:15;0.10;;;0.10;;
34697;SDS011;61391;50.922;6.928;2023-05-07T09:25:41;0.10;;;0.10;;
34697;SDS011;61391;50.922;6.928;2023-05-07T09:28:07;0.10;;;0.08;;
34697;SDS011;61391;50.922;6.928;2023-05-07T09:30:34;0.50;;;0.50;;
34697;SDS011;61391;50.922;6.928;2023-05-07T09:33:01;0.17;;;0.15;;
34697;SDS011;61391;50.922;6.928;2023-05-07T09:35:27;0.45;;;0.45;;
34697;SDS011;61391;50.922;6.928;2023-05-07T09:37:58;0.65;;;0.40;;
34697;SDS011;61391;50.922;6.928;2023-05-07T09:43:46;0.30;;;0.10;;
34697;SDS011;61391;50.922;6.928;2023-05-07T09:46:19;0.57;;;0.10;;
34697;SDS011;61391;50.922;6.928;2023-05-07T09:48:52;0.05;;;0.05;;
34697;SDS011;61391;50.922;6.928;2023-05-07T09:51:25;0.20;;;0.20;;
34697;SDS011;61391;50.922;6.928;2023-05-07T09:57:15;0.20;;;0.20;;
34697;SDS011;61391;50.922;6.928;2023-05-07T09:59:43;0.13;;;0.13;;
34697;SDS011;61391;50.922;6.928;2023-05-07T10:08:00;0.00;;;0.00;;
34697;SDS011;61391;50.922;6.928;2023-05-07T10:10:27;0.43;;;0.17;;
34697;SDS011;61391;50.922;6.928;2023-05-07T10:12:54;0.15;;;0.15;;
34697;SDS011;61391;50.922;6.928;2023-05-07T10:15:19;0.10;;;0.10;;
34697;SDS011;61391;50.922;6.928;2023-05-07T10:17:46;0.35;;;0.35;;
34697;SDS011;61391;50.922;6.928;2023-05-07T10:20:13;0.10;;;0.10;;
34697;SDS011;61391;50.922;6.928;2023-05-07T10:22:40;0.10;;;0.10;;
34697;SDS011;61391;50.922;6.928;2023-05-07T10:25:29;0.10;;;0.10;;
34697;SDS011;61391;50.922;6.928;2023-05-07T10:27:55;0.10;;;0.10;;
34697;SDS011;61391;50.922;6.928;2023-05-07T10:33:46;0.55;;;0.32;;
34697;SDS011;61391;50.922;6.928;2023-05-07T10:42:55;0.30;;;0.30;;
34697;SDS011;61391;50.922;6.928;2023-05-07T10:45:26;0.20;;;0.20;;
34697;SDS011;61391;50.922;6.928;2023-05-07T10:48:06;0.10;;;0.10;;
34697;SDS011;61391;50.922;6.928;2023-05-07T10:50:42;0.20;;;0.20;;
34697;SDS011;61391;50.922;6.928;2023-05-07T10:55:48;0.40;;;0.30;;
34697;SDS011;61391;50.922;6.928;2023-05-07T11:00:46;0.20;;;0.20;;
34697;SDS011;61391;50.922;6.928;2023-05-07T11:03:13;0.10;;;0.10;;
34697;SDS011;61391;50.922;6.928;2023-05-07T11:05:40;0.47;;;0.47;;
34697;SDS011;61391;50.922;6.928;2023-05-07T11:08:07;0.20;;;0.20;;
34697;SDS011;61391;50.922;6.928;2023-05-07T11:10:49;0.20;;;0.20;;
34697;SDS011;61391;50.922;6.928;2023-05-07T11:16:23;0.15;;;0.15;;
34697;SDS011;61391;50.922;6.928;2023-05-07T11:18:53;0.30;;;0.30;;
34697;SDS011;61391;50.922;6.928;2023-05-07T11:21:35;0.00;;;0.00;;
34697;SDS011;61391;50.922;6.928;2023-05-07T11:24:06;0.13;;;0.13;;
34697;SDS011;61391;50.922;6.928;2023-05-07T11:29:15;0.20;;;0.10;;
34697;SDS011;61391;50.922;6.928;2023-05-07T11:31:51;0.17;;;0.10;;
34697;SDS011;61391;50.922;6.928;2023-05-07T11:34:21;0.22;;;0.22;;
34697;SDS011;61391;50.922;6.928;2023-05-07T11:36:48;0.22;;;0.22;;
34697;SDS011;61391;50.922;6.928;2023-05-07T11:39:24;0.22;;;0.22;;
34697;SDS011;61391;50.922;6.928;2023-05-07T11:41:51;0.40;;;0.28;;
34697;SDS011;61391;50.922;6.928;2023-05-07T11:44:16;0.10;;;0.10;;
34697;SDS011;61391;50.922;6.928;2023-05-07T11:46:43;0.32;;;0.10;;
34697;SDS011;61391;50.922;6.928;2023-05-07T11:49:09;0.10;;;0.10;;
34697;SDS011;61391;50.922;6.928;2023-05-07T11:51:35;0.15;;;0.15;;
34697;SDS011;61391;50.922;6.928;2023-05-07T11:54:03;0.17;;;0.13;;
34697;SDS011;61391;50.922;6.928;2023-05-07T11:56:29;0.20;;;0.20;;
34697;SDS011;61391;50.922;6.928;2023-05-07T12:02:27;0.30;;;0.10;;
34697;SDS011;61391;50.922;6.928;2023-05-07T12:08:15;0.00;;;0.00;;
34697;SDS011;61391;50.922;6.928;2023-05-07T12:17:08;0.25;;;0.25;;
34697;SDS011;61391;50.922;6.928;2023-05-07T12:19:35;0.20;;;0.20;;
34697;SDS011;61391;50.922;6.928;2023-05-07T12:22:02;0.20;;;0.20;;
34697;SDS011;61391;50.922;6.928;2023-05-07T12:24:28;0.20;;;0.20;;
34697;SDS011;61391;50.922;6.928;2023-05-07T12:26:54;0.32;;;0.15;;
34697;SDS011;61391;50.922;6.928;2023-05-07T12:29:23;0.73;;;0.45;;
34697;SDS011;61391;50.922;6.928;2023-05-07T12:35:17;0.40;;;0.30;;
34697;SDS011;61391;50.922;6.928;2023-05-07T12:37:57;0.43;;;0.43;;
34697;SDS011;61391;50.922;6.928;2023-05-07T12:40:39;0.30;;;0.30;;
34697;SDS011;61391;50.922;6.928;2023-05-07T12:43:18;0.15;;;0.15;;
34697;SDS011;61391;50.922;6.928;2023-05-07T12:55:27;0.28;;;0.28;;
34697;SDS011;61391;50.922;6.928;2023-05-07T12:57:54;0.40;;;0.40;;
34697;SDS011;61391;50.922;6.928;2023-05-07T13:00:37;1.15;;;1.05;;
34697;SDS011;61391;50.922;6.928;2023-05-07T13:03:04;0.20;;;0.10;;
34697;SDS011;61391;50.922;6.928;2023-05-07T13:05:33;1.40;;;0.60;;
34697;SDS011;61391;50.922;6.928;2023-05-07T13:07:58;0.10;;;0.10;;
34697;SDS011;61391;50.922;6.928;2023-05-07T13:10:24;0.35;;;0.35;;
34697;SDS011;61391;50.922;6.928;2023-05-07T13:12:55;0.47;;;0.47;;
34697;SDS011;61391;50.922;6.928;2023-05-07T13:15:23;0.70;;;0.55;;
34697;SDS011;61391;50.922;6.928;2023-05-07T13:21:11;0.82;;;0.82;;
34697;SDS011;61391;50.922;6.928;2023-05-07T13:27:06;0.20;;;0.20;;
34697;SDS011;61391;50.922;6.928;2023-05-07T13:32:53;0.30;;;0.30;;
34697;SDS011;61391;50.922;6.928;2023-05-07T13:35:20;0.30;;;0.30;;
34697;SDS011;61391;50.922;6.928;2023-05-07T13:41:09;0.25;;;0.25;;
34697;SDS011;61391;50.922;6.928;2023-05-07T13:43:34;0.30;;;0.30;;
34697;SDS011;61391;50.922;6.928;2023-05-07T13:46:00;0.13;;;0.13;;
34697;SDS011;61391;50.922;6.928;2023-05-07T13:48:26;0.10;;;0.10;;
34697;SDS011;61391;50.922;6.928;2023-05-07T13:50:53;0.15;;;0.15;;
34697;SDS011;61391;50.922;6.928;2023-05-07T13:53:19;0.40;;;0.40;;
34697;SDS011;61391;50.922;6.928;2023-05-07T13:55:44;0.17;;;0.17;;
34697;SDS011;61391;50.922;6.928;2023-05-07T13:58:10;0.10;;;0.10;;
34697;SDS011;61391;50.922;6.928;2023-05-07T14:03:58;0.25;;;0.10;;
34697;SDS011;61391;50.922;6.928;2023-05-07T14:06:24;0.40;;;0.40;;
34697;SDS011;61391;50.922;6.928;2023-05-07T14:12:12;0.32;;;0.32;;
34697;SDS011;61391;50.922;6.928;2023-05-07T14:18:00;0.10;;;0.10;;
34697;SDS011;61391;50.922;6.928;2023-05-07T14:20:27;0.20;;;0.20;;
34697;SDS011;61391;50.922;6.928;2023-05-07T14:26:14;0.28;;;0.28;;
34697;SDS011;61391;50.922;6.928;2023-05-07T14:32:02;0.10;;;0.10;;
34697;SDS011;61391;50.922;6.928;2023-05-07T14:34:28;0.40;;;0.30;;
34697;SDS011;61391;50.922;6.928;2023-05-07T14:36:54;2.90;;;1.60;;
34697;SDS011;61391;50.922;6.928;2023-05-07T14:42:47;0.30;;;0.30;;
34697;SDS011;61391;50.922;6.928;2023-05-07T14:45:15;0.57;;;0.35;;
34697;SDS011;61391;50.922;6.928;2023-05-07T14:47:41;0.30;;;0.30;;
34697;SDS011;61391;50.922;6.928;2023-05-07T14:50:07;1.40;;;1.30;;
34697;SDS011;61391;50.922;6.928;2023-05-07T14:52:51;8.15;;;4.43;;
34697;SDS011;61391;50.922;6.928;2023-05-07T14:58:39;9.03;;;6.37;;
34697;SDS011;61391;50.922;6.928;2023-05-07T15:01:05;4.63;;;3.97;;
34697;SDS011;61391;50.922;6.928;2023-05-07T15:03:30;0.85;;;0.85;;
34697;SDS011;61391;50.922;6.928;2023-05-07T15:05:56;1.98;;;1.83;;
34697;SDS011;61391;50.922;6.928;2023-05-07T15:08:22;0.28;;;0.28;;
34697;SDS011;61391;50.922;6.928;2023-05-07T15:10:47;0.45;;;0.45;;
34697;SDS011;61391;50.922;6.928;2023-05-07T15:13:13;0.30;;;0.30;;
34697;SDS011;61391;50.922;6.928;2023-05-07T15:15:39;0.47;;;0.20;;
34697;SDS011;61391;50.922;6.928;2023-05-07T15:18:06;1.20;;;1.15;;
34697;SDS011;61391;50.922;6.928;2023-05-07T15:20:32;1.30;;;0.52;;
34697;SDS011;61391;50.922;6.928;2023-05-07T15:22:58;0.38;;;0.38;;
34697;SDS011;61391;50.922;6.928;2023-05-07T15:25:24;2.22;;;0.82;;
34697;SDS011;61391;50.922;6.928;2023-05-07T15:27:49;0.82;;;0.70;;
34697;SDS011;61391;50.922;6.928;2023-05-07T15:33:39;1.17;;;0.70;;
34697;SDS011;61391;50.922;6.928;2023-05-07T15:36:05;0.55;;;0.40;;
34697;SDS011;61391;50.922;6.928;2023-05-07T15:41:53;0.13;;;0.13;;
34697;SDS011;61391;50.922;6.928;2023-05-07T15:44:19;0.03;;;0.03;;
34697;SDS011;61391;50.922;6.928;2023-05-07T15:50:08;0.30;;;0.10;;
34697;SDS011;61391;50.922;6.928;2023-05-07T15:55:57;0.83;;;0.40;;
34697;SDS011;61391;50.922;6.928;2023-05-07T15:58:23;0.52;;;0.28;;
34697;SDS011;61391;50.922;6.928;2023-05-07T16:00:48;0.30;;;0.30;;
34697;SDS011;61391;50.922;6.928;2023-05-07T16:03:14;0.22;;;0.17;;
34697;SDS011;61391;50.922;6.928;2023-05-07T16:09:01;1.10;;;0.38;;
34697;SDS011;61391;50.922;6.928;2023-05-07T16:11:27;0.10;;;0.10;;
34697;SDS011;61391;50.922;6.928;2023-05-07T16:17:10;0.50;;;0.20;;
34697;SDS011;61391;50.922;6.928;2023-05-07T16:19:36;0.20;;;0.20;;
34697;SDS011;61391;50.922;6.928;2023-05-07T16:22:01;2.65;;;0.15;;
34697;SDS011;61391;50.922;6.928;2023-05-07T16:24:27;0.05;;;0.05;;
34697;SDS011;61391;50.922;6.928;2023-05-07T16:26:54;0.20;;;0.20;;
34697;SDS011;61391;50.922;6.928;2023-05-07T16:29:20;0.47;;;0.47;;
34697;SDS011;61391;50.922;6.928;2023-05-07T16:35:09;0.28;;;0.25;;
34697;SDS011;61391;50.922;6.928;2023-05-07T16:37:34;0.10;;;0.10;;
34697;SDS011;61391;50.922;6.928;2023-05-07T16:40:00;0.28;;;0.28;;
34697;SDS011;61391;50.922;6.928;2023-05-07T16:42:31;0.98;;;0.40;;
34697;SDS011;61391;50.922;6.928;2023-05-07T16:44:58;0.35;;;0.35;;
34697;SDS011;61391;50.922;6.928;2023-05-07T16:50:46;3.20;;;0.93;;
34697;SDS011;61391;50.922;6.928;2023-05-07T16:56:34;0.08;;;0.08;;
34697;SDS011;61391;50.922;6.928;2023-05-07T16:59:00;0.10;;;0.10;;
34697;SDS011;61391;50.922;6.928;2023-05-07T17:01:26;0.20;;;0.20;;
34697;SDS011;61391;50.922;6.928;2023-05-07T17:07:18;0.30;;;0.30;;
34697;SDS011;61391;50.922;6.928;2023-05-07T17:09:45;0.55;;;0.20;;
34697;SDS011;61391;50.922;6.928;2023-05-07T17:15:32;0.10;;;0.10;;
34697;SDS011;61391;50.922;6.928;2023-05-07T17:17:58;0.30;;;0.20;;
34697;SDS011;61391;50.922;6.928;2023-05-07T17:20:25;0.10;;;0.10;;